createdAt,value
2019-03-17T00:00:41.210Z,12.68
2019-03-17T00:05:46.217Z,12.34
2019-03-17T00:10:52.616Z,12.52
2019-03-17T00:15:57.774Z,11.83
2019-03-17T00:21:02.640Z,12.43
2019-03-17T00:26:07.378Z,12.55
2019-03-17T00:31:23.243Z,12.96
2019-03-17T00:36:18.407Z,12.83
2019-03-17T00:41:23.153Z,12.67
2019-03-17T00:46:27.890Z,12.25
2019-03-17T00:51:33.554Z,11.76
2019-03-17T00:56:38.195Z,11.41
2019-03-17T01:01:42.946Z,10.35
2019-03-17T01:06:47.683Z,11.16
2019-03-17T01:11:53.547Z,11.30
2019-03-17T01:16:59.340Z,10.98
2019-03-17T01:22:04.064Z,11.10
2019-03-17T01:27:08.801Z,10.47
2019-03-17T01:32:13.546Z,10.43
2019-03-17T01:37:18.392Z,10.13
2019-03-17T01:42:24.260Z,10.17
2019-03-17T01:47:29.008Z,10.09
2019-03-17T01:52:33.750Z,10.03
2019-03-17T01:57:38.488Z,9.97
2019-03-17T02:02:43.232Z,10.16
2019-03-17T02:07:47.975Z,9.68
2019-03-17T02:12:52.720Z,9.83
2019-03-17T02:17:57.457Z,10.06
2019-03-17T02:23:02.202Z,9.99
2019-03-17T02:28:06.835Z,9.52
2019-03-17T02:33:11.524Z,9.78
2019-03-17T02:38:16.184Z,10.04
2019-03-17T02:43:21.081Z,9.50
2019-03-17T02:48:25.651Z,8.91
2019-03-17T02:53:30.354Z,9.11
2019-03-17T02:58:34.987Z,8.67
2019-03-17T03:03:39.634Z,8.27
2019-03-17T03:08:44.277Z,7.88
2019-03-17T03:13:48.926Z,8.28
2019-03-17T03:18:53.657Z,8.32
2019-03-17T03:23:58.403Z,7.95
2019-03-17T03:29:03.035Z,8.20
2019-03-17T03:34:07.684Z,7.55
2019-03-17T03:39:12.456Z,8.17
2019-03-17T03:44:17.065Z,8.43
2019-03-17T03:49:21.715Z,8.96
2019-03-17T03:54:26.449Z,9.09
2019-03-17T03:59:31.195Z,9.38
2019-03-17T04:04:35.827Z,9.81
2019-03-17T04:09:42.232Z,9.46
2019-03-17T04:14:46.858Z,9.91
2019-03-17T04:19:51.603Z,9.82
2019-03-17T04:24:56.238Z,8.22
2019-03-17T04:30:00.906Z,7.51
2019-03-17T04:35:07.053Z,8.03
2019-03-17T04:40:11.805Z,8.79
2019-03-17T04:45:16.757Z,8.71
2019-03-17T04:50:21.386Z,8.41
2019-03-17T04:55:26.129Z,7.69
2019-03-17T05:00:32.639Z,8.28
2019-03-17T05:05:37.455Z,8.36
2019-03-17T05:10:42.201Z,8.44
2019-03-17T05:15:47.149Z,9.24
2019-03-17T05:20:52.319Z,8.98
2019-03-17T05:25:57.557Z,9.93
2019-03-17T05:31:02.400Z,10.68
2019-03-17T05:36:07.247Z,11.64
2019-03-17T05:41:11.896Z,10.62
2019-03-17T05:46:16.638Z,12.25
2019-03-17T05:51:21.264Z,13.48
2019-03-17T05:56:26.116Z,13.92
2019-03-17T06:01:30.758Z,13.86
2019-03-17T06:06:35.503Z,13.01
2019-03-17T06:11:40.345Z,13.24
2019-03-17T06:16:46.215Z,12.80
2019-03-17T06:21:52.713Z,12.75
2019-03-17T06:26:57.540Z,13.33
2019-03-17T06:32:02.287Z,13.64
2019-03-17T06:37:07.139Z,13.95
2019-03-17T06:42:11.895Z,14.29
2019-03-17T06:47:16.940Z,13.95
2019-03-17T06:52:23.969Z,14.41
2019-03-17T06:57:28.769Z,14.80
2019-03-17T07:02:33.510Z,15.43
2019-03-17T07:07:43.816Z,15.36
2019-03-17T07:12:44.857Z,15.87
2019-03-17T07:17:51.732Z,16.32
2019-03-17T07:22:57.311Z,16.54
2019-03-17T07:28:03.248Z,16.89
2019-03-17T07:33:08.324Z,17.32
2019-03-17T07:38:14.349Z,17.49
2019-03-17T07:43:20.209Z,17.63
2019-03-17T07:48:26.661Z,17.77
2019-03-17T07:53:33.878Z,17.52
2019-03-17T07:58:38.860Z,17.45
2019-03-17T08:03:43.591Z,18.24
2019-03-17T08:08:56.898Z,18.21
2019-03-17T08:14:06.231Z,18.71
2019-03-17T08:19:11.090Z,18.98
2019-03-17T08:24:16.439Z,19.35
2019-03-17T08:29:21.184Z,19.07
2019-03-17T08:34:28.545Z,18.11
2019-03-17T08:39:35.425Z,19.66
2019-03-17T08:44:41.457Z,20.47
2019-03-17T08:49:46.304Z,20.86
2019-03-17T08:54:51.386Z,20.53
2019-03-17T08:59:56.402Z,21.56
2019-03-17T09:05:01.678Z,21.59
2019-03-17T09:10:14.658Z,22.08
2019-03-17T09:15:21.525Z,22.63
2019-03-17T09:20:26.444Z,22.61
2019-03-17T09:25:32.990Z,22.96
2019-03-17T09:30:38.002Z,22.45
2019-03-17T09:35:42.633Z,23.74
2019-03-17T09:45:58.310Z,23.99
2019-03-17T09:51:03.340Z,24.29
2019-03-17T09:56:08.451Z,24.12
2019-03-17T10:01:13.194Z,24.11
2019-03-17T10:06:19.120Z,24.55
2019-03-17T10:11:24.357Z,24.76
2019-03-17T10:16:30.701Z,24.65
2019-03-17T10:21:35.646Z,25.03
2019-03-17T10:26:40.437Z,24.53
2019-03-17T10:31:46.154Z,24.52
2019-03-17T10:36:53.186Z,24.54
2019-03-17T10:41:58.850Z,25.26
2019-03-17T10:47:03.984Z,25.17
2019-03-17T10:52:09.236Z,25.41
2019-03-17T10:57:14.083Z,25.48
2019-03-17T11:02:18.840Z,25.61
2019-03-17T11:07:23.576Z,25.90
2019-03-17T11:12:28.524Z,25.83
2019-03-17T11:17:33.579Z,25.59
2019-03-17T11:22:43.774Z,25.49
2019-03-17T11:27:56.094Z,25.65
2019-03-17T11:33:07.624Z,25.45
2019-03-17T11:38:24.837Z,25.77
2019-03-17T11:43:31.907Z,25.34
2019-03-17T11:48:36.748Z,25.80
2019-03-17T11:53:42.042Z,25.27
2019-03-17T11:58:46.748Z,25.82
2019-03-17T12:03:51.697Z,26.00
2019-03-17T12:08:56.444Z,26.10
2019-03-17T12:14:01.194Z,26.31
2019-03-17T12:19:07.567Z,24.65
2019-03-17T12:24:12.355Z,26.12
2019-03-17T12:29:17.468Z,26.46
2019-03-17T12:34:28.062Z,26.41
2019-03-17T12:39:28.800Z,26.83
2019-03-17T12:44:33.746Z,26.78
2019-03-17T12:49:40.481Z,25.77
2019-03-17T12:54:45.185Z,27.25
2019-03-17T12:59:49.931Z,26.56
2019-03-17T13:04:54.658Z,27.06
2019-03-17T13:09:59.417Z,27.01
2019-03-17T13:15:06.439Z,26.75
2019-03-17T13:20:16.374Z,27.13
2019-03-17T13:25:21.125Z,27.18
2019-03-17T13:30:25.875Z,26.74
2019-03-17T13:35:30.609Z,27.16
2019-03-17T13:40:36.611Z,26.73
2019-03-17T13:45:41.436Z,26.85
2019-03-17T13:50:47.061Z,27.17
2019-03-17T13:55:51.940Z,27.18
2019-03-17T14:00:57.708Z,26.97
2019-03-17T14:06:03.262Z,26.43
2019-03-17T14:11:09.251Z,26.76
2019-03-17T14:16:15.829Z,26.53
2019-03-17T14:21:24.419Z,27.13
2019-03-17T14:26:28.465Z,27.10
2019-03-17T14:31:33.244Z,26.70
2019-03-17T14:36:38.087Z,26.71
2019-03-17T14:41:44.044Z,26.79
2019-03-17T14:46:50.694Z,26.03
2019-03-17T14:51:56.673Z,26.42
2019-03-17T14:57:01.344Z,26.74
2019-03-17T15:02:06.212Z,26.60
2019-03-17T15:07:10.900Z,26.62
2019-03-17T15:12:15.603Z,26.42
2019-03-17T15:17:20.547Z,26.48
2019-03-17T15:22:25.375Z,26.47
2019-03-17T15:27:30.240Z,26.34
2019-03-17T15:32:35.086Z,26.09
2019-03-17T15:37:40.031Z,25.92
2019-03-17T15:42:44.780Z,25.95
2019-03-17T15:47:50.131Z,25.83
2019-03-17T15:52:56.823Z,25.71
2019-03-17T15:58:01.429Z,25.34
2019-03-17T16:03:06.272Z,25.23
2019-03-17T16:08:11.360Z,24.88
2019-03-17T16:13:16.001Z,24.02
2019-03-17T16:18:20.757Z,22.60
2019-03-17T16:23:25.374Z,23.23
2019-03-17T16:28:30.035Z,22.18
2019-03-17T16:33:35.626Z,22.37
2019-03-17T16:38:40.352Z,21.67
2019-03-17T16:43:47.777Z,21.70
2019-03-17T16:48:56.205Z,21.40
2019-03-17T16:54:05.105Z,20.73
2019-03-17T16:59:14.138Z,21.00
2019-03-17T17:04:22.977Z,21.21
2019-03-17T17:09:28.510Z,21.50
2019-03-17T17:14:36.576Z,20.73
2019-03-17T17:19:45.347Z,20.03
2019-03-17T17:24:53.723Z,20.02
2019-03-17T17:30:02.114Z,20.13
2019-03-17T17:35:11.069Z,20.56
2019-03-17T17:40:23.665Z,20.29
2019-03-17T17:45:32.877Z,18.94
2019-03-17T17:50:42.227Z,19.79
2019-03-17T17:55:50.231Z,19.71
2019-03-17T18:01:00.732Z,18.71
2019-03-17T18:06:10.320Z,19.19
2019-03-17T18:11:16.709Z,18.61
2019-03-17T18:16:25.849Z,18.22
2019-03-17T18:21:35.321Z,18.28
2019-03-17T18:26:40.957Z,18.45
2019-03-17T18:31:45.799Z,18.27
2019-03-17T18:36:50.654Z,17.06
2019-03-17T18:41:55.394Z,17.12
2019-03-17T18:47:01.243Z,16.60
2019-03-17T18:52:10.120Z,16.01
2019-03-17T18:57:20.712Z,16.15
2019-03-17T19:02:26.757Z,15.59
2019-03-17T19:07:31.612Z,15.49
2019-03-17T19:12:44.936Z,14.93
2019-03-17T19:17:42.734Z,14.49
2019-03-17T19:22:49.013Z,14.53
2019-03-17T19:27:53.756Z,14.44
2019-03-17T19:32:58.498Z,14.95
2019-03-17T19:38:03.135Z,14.91
2019-03-17T19:43:08.185Z,14.60
2019-03-17T19:48:13.046Z,15.30
2019-03-17T19:53:18.112Z,15.96
2019-03-17T19:58:23.033Z,16.21
2019-03-17T20:03:28.488Z,15.66
2019-03-17T20:08:34.408Z,15.23
2019-03-17T20:13:39.740Z,15.35
2019-03-17T20:18:45.098Z,14.91
2019-03-17T20:23:50.600Z,15.03
2019-03-17T20:28:56.233Z,14.66
2019-03-17T20:34:02.175Z,14.52
2019-03-17T20:39:09.738Z,13.88
2019-03-17T20:44:14.535Z,13.48
2019-03-17T20:49:19.267Z,13.20
2019-03-17T20:54:23.910Z,13.39
2019-03-17T20:59:28.751Z,13.49
2019-03-17T21:04:33.317Z,13.15
2019-03-17T21:09:38.037Z,13.54
2019-03-17T21:14:42.779Z,12.18
2019-03-17T21:19:47.625Z,12.92
2019-03-17T21:24:52.369Z,12.93
2019-03-17T21:29:57.108Z,12.33
2019-03-17T21:35:01.855Z,13.12
2019-03-17T21:40:09.428Z,13.11
2019-03-17T21:45:14.397Z,13.13
2019-03-17T21:50:20.998Z,13.04
2019-03-17T21:55:25.945Z,12.66
2019-03-17T22:00:30.690Z,12.06
2019-03-17T22:05:35.431Z,12.13
2019-03-17T22:10:40.271Z,11.53
2019-03-17T22:15:45.230Z,11.38
2019-03-17T22:20:49.968Z,11.03
2019-03-17T22:25:54.811Z,11.53
2019-03-17T22:30:59.561Z,11.80
2019-03-17T22:36:04.307Z,11.67
2019-03-17T22:41:09.050Z,10.11
2019-03-17T22:46:13.786Z,11.21
2019-03-17T22:51:18.746Z,11.24
2019-03-17T22:56:23.683Z,10.31
2019-03-17T23:01:28.530Z,10.85
2019-03-17T23:06:33.188Z,10.63
2019-03-17T23:11:37.811Z,11.18
2019-03-17T23:16:42.407Z,10.74
2019-03-17T23:21:47.835Z,11.02
2019-03-17T23:26:52.758Z,10.55
2019-03-17T23:31:57.599Z,11.13
2019-03-17T23:37:02.343Z,11.22
2019-03-17T23:42:06.988Z,10.25
2019-03-17T23:47:11.630Z,10.77
2019-03-17T23:52:16.280Z,10.60
2019-03-17T23:57:21.113Z,10.20
